createdAt,value
2023-01-03T00:02:03.382Z,22.52
2023-01-03T00:04:31.644Z,21.45
2023-01-03T00:07:01.355Z,23.10
2023-01-03T00:09:29.506Z,21.70
2023-01-03T00:12:14.821Z,22.40
2023-01-03T00:14:45.238Z,22.65
2023-01-03T00:17:14.502Z,21.85
2023-01-03T00:19:44.652Z,22.45
2023-01-03T00:22:17.936Z,23.60
2023-01-03T00:24:47.189Z,22.08
2023-01-03T00:27:16.672Z,24.27
2023-01-03T00:29:44.881Z,22.75
2023-01-03T00:32:13.509Z,24.50
2023-01-03T00:34:45.571Z,24.83
2023-01-03T00:37:15.863Z,24.05
2023-01-03T00:39:44.323Z,24.80
2023-01-03T00:42:13.077Z,24.10
2023-01-03T00:44:41.275Z,22.33
2023-01-03T00:47:09.408Z,23.45
2023-01-03T00:49:37.622Z,24.20
2023-01-03T00:52:05.931Z,25.80
2023-01-03T00:54:35.580Z,27.90
2023-01-03T00:57:04.344Z,23.38
2023-01-03T00:59:32.502Z,22.58
2023-01-03T01:02:00.755Z,25.00
2023-01-03T01:04:31.255Z,25.60
2023-01-03T01:07:01.850Z,22.48
2023-01-03T01:09:32.056Z,23.63
2023-01-03T01:12:02.084Z,24.25
2023-01-03T01:14:33.561Z,24.20
2023-01-03T01:17:03.587Z,24.20
2023-01-03T01:19:33.802Z,25.45
2023-01-03T01:22:02.079Z,25.23
2023-01-03T01:24:30.602Z,25.27
2023-01-03T01:26:59.160Z,25.02
2023-01-03T01:29:28.841Z,27.17
2023-01-03T01:31:57.115Z,28.42
2023-01-03T01:34:25.400Z,27.92
2023-01-03T01:36:53.860Z,28.77
2023-01-03T01:39:23.381Z,29.42
2023-01-03T01:42:19.068Z,29.80
2023-01-03T01:44:55.992Z,29.20
2023-01-03T01:47:30.207Z,28.42
2023-01-03T01:50:02.878Z,29.27
2023-01-03T01:52:33.265Z,26.65
2023-01-03T01:55:04.779Z,25.58
2023-01-03T01:57:34.161Z,25.33
2023-01-03T02:03:05.506Z,24.08
2023-01-03T02:05:37.013Z,23.10
2023-01-03T02:08:05.929Z,22.77
2023-01-03T02:10:57.866Z,18.45
2023-01-03T02:13:32.678Z,21.98
2023-01-03T02:16:21.718Z,17.98
2023-01-03T02:19:00.275Z,17.00
2023-01-03T02:21:51.505Z,21.23
2023-01-03T02:24:54.543Z,21.27
2023-01-03T02:27:54.761Z,16.83
2023-01-03T02:30:45.599Z,19.88
2023-01-03T02:33:24.789Z,16.17
2023-01-03T02:36:01.565Z,18.10
2023-01-03T02:38:47.765Z,19.15
2023-01-03T02:41:24.542Z,21.40
2023-01-03T02:43:56.706Z,20.83
2023-01-03T02:46:31.428Z,21.30
2023-01-03T02:49:05.538Z,24.05
2023-01-03T02:51:37.384Z,22.80
2023-01-03T02:54:09.011Z,21.02
2023-01-03T02:56:41.011Z,19.92
2023-01-03T02:59:14.958Z,22.23
2023-01-03T03:01:45.781Z,24.45
2023-01-03T03:04:15.636Z,23.75
2023-01-03T03:06:51.178Z,25.52
2023-01-03T03:09:19.393Z,25.77
2023-01-03T03:12:06.199Z,24.75
2023-01-03T03:14:38.457Z,23.60
2023-01-03T03:17:13.578Z,25.40
2023-01-03T03:20:04.557Z,23.87
2023-01-03T03:23:03.657Z,21.98
2023-01-03T03:25:37.143Z,20.40
2023-01-03T03:28:37.533Z,21.08
2023-01-03T03:31:10.432Z,20.42
2023-01-03T03:33:44.910Z,21.17
2023-01-03T03:36:18.600Z,21.60
2023-01-03T03:38:47.647Z,22.70
2023-01-03T03:41:36.992Z,22.65
2023-01-03T03:44:32.508Z,21.70
2023-01-03T03:47:08.136Z,22.67
2023-01-03T03:49:42.945Z,25.23
2023-01-03T03:52:14.940Z,23.73
2023-01-03T03:54:48.196Z,24.58
2023-01-03T03:57:22.213Z,23.90
2023-01-03T03:59:56.445Z,24.13
2023-01-03T04:02:27.262Z,23.75
2023-01-03T04:05:00.421Z,24.23
2023-01-03T04:07:28.839Z,25.00
2023-01-03T04:09:57.418Z,26.13
2023-01-03T04:12:25.919Z,25.15
2023-01-03T04:14:54.248Z,26.65
2023-01-03T04:17:22.420Z,26.48
2023-01-03T04:19:50.563Z,30.05
2023-01-03T04:22:20.140Z,31.67
2023-01-03T04:24:48.264Z,29.90
2023-01-03T04:27:16.495Z,28.92
2023-01-03T04:29:44.616Z,29.38
2023-01-03T04:32:12.748Z,30.63
2023-01-03T04:34:41.065Z,30.80
2023-01-03T04:37:09.297Z,29.73
2023-01-03T04:39:38.918Z,28.52
2023-01-03T04:42:27.848Z,30.75
2023-01-03T04:44:55.104Z,28.98
2023-01-03T04:47:23.196Z,29.20
2023-01-03T04:49:52.141Z,29.27
2023-01-03T04:52:20.298Z,28.02
2023-01-03T04:54:50.110Z,28.20
2023-01-03T04:57:18.222Z,26.60
2023-01-03T04:59:46.347Z,22.83
2023-01-03T05:02:14.606Z,24.98
2023-01-03T05:04:42.987Z,26.60
2023-01-03T05:07:11.145Z,27.98
2023-01-03T05:09:39.778Z,28.00
2023-01-03T05:12:12.286Z,29.55
2023-01-03T05:14:41.685Z,27.92
2023-01-03T05:17:10.083Z,28.55
2023-01-03T05:19:59.338Z,27.27
2023-01-03T05:22:45.193Z,25.50
2023-01-03T05:25:31.788Z,25.00
2023-01-03T05:28:02.422Z,25.63
2023-01-03T05:30:30.692Z,24.25
2023-01-03T05:32:59.292Z,23.15
2023-01-03T05:35:33.549Z,22.90
2023-01-03T05:38:01.678Z,22.23
2023-01-03T05:40:29.834Z,24.02
2023-01-03T05:42:58.075Z,23.00
2023-01-03T05:45:27.837Z,23.42
2023-01-03T05:47:58.655Z,23.10
2023-01-03T05:50:26.873Z,23.60
2023-01-03T05:52:54.992Z,23.00
2023-01-03T05:55:23.214Z,22.73
2023-01-03T05:57:57.469Z,24.00
2023-01-03T06:00:27.055Z,23.75
2023-01-03T06:02:55.438Z,23.80
2023-01-03T06:05:24.022Z,24.13
2023-01-03T06:07:52.214Z,23.80
2023-01-03T06:10:20.366Z,26.65
2023-01-03T06:12:48.563Z,25.27
2023-01-03T06:15:16.912Z,25.85
2023-01-03T06:18:02.675Z,23.67
2023-01-03T06:20:31.718Z,19.45
2023-01-03T06:23:00.020Z,22.05
2023-01-03T06:25:28.442Z,21.25
2023-01-03T06:27:56.962Z,22.88
2023-01-03T06:30:25.266Z,21.58
2023-01-03T06:32:54.877Z,21.65
2023-01-03T06:35:23.156Z,20.67
2023-01-03T06:37:51.310Z,22.67
2023-01-03T06:40:20.324Z,21.60
2023-01-03T06:42:48.494Z,21.27
2023-01-03T06:45:34.188Z,21.38
2023-01-03T06:48:23.845Z,21.35
2023-01-03T06:51:11.971Z,25.58
2023-01-03T06:53:42.236Z,23.83
2023-01-03T06:56:11.702Z,23.60
2023-01-03T06:58:39.863Z,22.40
2023-01-03T07:01:08.390Z,21.33
2023-01-03T07:03:37.996Z,22.80
2023-01-03T07:06:06.328Z,23.63
2023-01-03T07:08:34.518Z,24.58
2023-01-03T07:11:02.841Z,22.65
2023-01-03T07:13:48.130Z,26.45
2023-01-03T07:16:17.440Z,26.50
2023-01-03T07:18:54.760Z,27.58
2023-01-03T07:21:26.402Z,28.00
2023-01-03T07:23:55.514Z,26.67
2023-01-03T07:26:25.271Z,25.60
2023-01-03T07:28:53.743Z,25.60
2023-01-03T07:31:22.115Z,25.25
2023-01-03T07:33:53.209Z,24.23
2023-01-03T07:36:22.989Z,26.13
2023-01-03T07:38:51.163Z,27.13
2023-01-03T07:41:19.377Z,28.83
2023-01-03T07:43:48.288Z,29.70
2023-01-03T07:46:18.122Z,28.33
2023-01-03T07:48:48.624Z,28.52
2023-01-03T07:51:21.216Z,26.80
2023-01-03T07:53:52.030Z,26.55
2023-01-03T07:56:21.155Z,24.38
2023-01-03T07:58:52.122Z,26.08
2023-01-03T08:01:22.309Z,25.13
2023-01-03T08:03:50.919Z,25.92
2023-01-03T08:06:23.291Z,24.60
2023-01-03T08:09:06.578Z,25.02
2023-01-03T08:11:52.205Z,24.38
2023-01-03T08:14:25.707Z,23.60
2023-01-03T08:16:54.615Z,23.95
2023-01-03T08:19:23.195Z,23.50
2023-01-03T08:21:52.848Z,23.65
2023-01-03T08:24:21.214Z,23.15
2023-01-03T08:26:49.674Z,23.63
2023-01-03T08:29:18.348Z,24.63
2023-01-03T08:31:52.554Z,23.58
2023-01-03T08:34:29.002Z,22.33
2023-01-03T08:37:02.688Z,21.08
2023-01-03T08:39:35.918Z,19.42
2023-01-03T08:42:08.778Z,20.23
2023-01-03T08:44:37.831Z,21.10
2023-01-03T08:47:08.551Z,21.95
2023-01-03T08:49:37.324Z,20.83
2023-01-03T08:52:07.085Z,21.65
2023-01-03T08:54:35.340Z,21.85
2023-01-03T08:57:03.553Z,19.88
2023-01-03T08:59:31.831Z,21.17
2023-01-03T09:02:00.979Z,20.13
2023-01-03T09:04:29.461Z,21.80
2023-01-03T09:06:59.742Z,21.83
2023-01-03T09:09:29.517Z,21.98
2023-01-03T09:11:57.944Z,21.83
2023-01-03T09:14:26.291Z,20.80
2023-01-03T09:16:54.557Z,22.25
2023-01-03T09:19:23.050Z,20.30
2023-01-03T09:21:51.203Z,21.55
2023-01-03T09:24:19.564Z,21.45
2023-01-03T09:26:54.539Z,20.50
2023-01-03T09:29:23.492Z,20.92
2023-01-03T09:31:52.013Z,21.23
2023-01-03T09:34:20.397Z,23.23
2023-01-03T09:36:49.111Z,22.45
2023-01-03T09:39:17.469Z,23.60
2023-01-03T09:41:45.901Z,25.40
2023-01-03T09:44:15.536Z,25.60
2023-01-03T09:46:44.077Z,25.08
2023-01-03T09:49:15.274Z,23.95
2023-01-03T09:52:04.250Z,24.15
2023-01-03T09:54:52.849Z,23.23
2023-01-03T09:57:43.390Z,22.92
2023-01-03T10:00:35.335Z,23.25
2023-01-03T10:03:36.646Z,26.58
2023-01-03T10:06:14.350Z,23.67
2023-01-03T10:08:57.121Z,22.65
2023-01-03T10:11:34.740Z,21.40
2023-01-03T10:14:19.458Z,21.88
2023-01-03T10:17:01.172Z,21.23
2023-01-03T10:19:52.657Z,20.35
2023-01-03T10:22:23.541Z,20.00
2023-01-03T10:24:57.216Z,20.25
2023-01-03T10:27:28.791Z,19.67
2023-01-03T10:30:01.257Z,20.02
2023-01-03T10:32:51.663Z,20.38
2023-01-03T10:35:22.428Z,20.25
2023-01-03T10:37:53.245Z,20.52
2023-01-03T10:40:22.664Z,19.45
2023-01-03T10:43:08.685Z,16.40
2023-01-03T10:45:52.866Z,16.70
2023-01-03T10:48:22.982Z,17.23
2023-01-03T10:50:53.497Z,17.92
2023-01-03T10:53:26.225Z,17.60
2023-01-03T10:55:58.807Z,16.20
2023-01-03T10:58:35.896Z,16.60
2023-01-03T11:01:22.435Z,15.80
2023-01-03T11:04:14.181Z,16.58
2023-01-03T11:07:01.336Z,17.10
2023-01-03T11:09:34.137Z,16.38
2023-01-03T11:12:06.809Z,16.15
2023-01-03T11:14:34.997Z,15.95
2023-01-03T11:17:06.087Z,16.20
2023-01-03T11:19:35.795Z,16.55
2023-01-03T11:22:14.461Z,16.52
2023-01-03T11:25:06.722Z,18.00
2023-01-03T11:28:16.514Z,16.60
2023-01-03T11:30:54.335Z,16.67
2023-01-03T11:33:43.380Z,15.18
2023-01-03T11:36:27.871Z,14.95
2023-01-03T11:39:14.998Z,14.85
2023-01-03T11:42:10.539Z,14.48
2023-01-03T11:44:58.585Z,14.38
2023-01-03T11:47:35.901Z,15.00
2023-01-03T11:50:19.895Z,15.90
2023-01-03T11:52:58.222Z,15.25
2023-01-03T11:55:42.925Z,15.00
2023-01-03T11:58:39.269Z,15.52
2023-01-03T12:01:16.836Z,15.73
2023-01-03T12:03:59.597Z,16.10
2023-01-03T12:06:34.336Z,14.98
2023-01-03T12:09:14.344Z,13.90
2023-01-03T12:12:01.996Z,14.93
2023-01-03T12:14:35.189Z,15.35
2023-01-03T12:17:08.710Z,14.98
2023-01-03T12:19:43.403Z,14.27
2023-01-03T12:22:20.177Z,14.55
2023-01-03T12:24:54.962Z,14.00
2023-01-03T12:27:31.765Z,15.20
2023-01-03T12:30:05.052Z,14.82
2023-01-03T12:32:39.170Z,15.07
2023-01-03T12:35:20.274Z,15.40
2023-01-03T12:37:51.309Z,14.45
2023-01-03T12:40:28.057Z,14.70
2023-01-03T12:43:07.028Z,15.38
2023-01-03T12:45:57.138Z,15.70
2023-01-03T12:48:53.650Z,15.55
2023-01-03T12:51:24.815Z,15.63
2023-01-03T12:54:06.635Z,15.05
2023-01-03T12:56:52.886Z,15.20
2023-01-03T12:59:42.839Z,15.38
2023-01-03T13:02:23.092Z,14.32
2023-01-03T13:04:55.120Z,15.80
2023-01-03T13:07:27.368Z,16.20
2023-01-03T13:10:01.508Z,15.23
2023-01-03T13:12:35.373Z,14.43
2023-01-03T13:15:17.465Z,14.68
2023-01-03T13:17:47.672Z,15.05
2023-01-03T13:20:34.914Z,16.65
2023-01-03T13:23:34.225Z,16.48
2023-01-03T13:26:23.513Z,15.70
2023-01-03T13:28:53.879Z,17.25
2023-01-03T13:31:47.957Z,16.27
2023-01-03T13:34:33.170Z,17.15
2023-01-03T13:37:18.189Z,17.33
2023-01-03T13:39:58.558Z,18.02
2023-01-03T13:42:30.949Z,18.02
2023-01-03T13:45:49.515Z,19.23
2023-01-03T13:48:29.685Z,20.25
2023-01-03T13:51:40.135Z,19.25
2023-01-03T13:54:36.419Z,19.40
2023-01-03T13:57:07.951Z,20.48
2023-01-03T13:59:44.010Z,19.85
2023-01-03T14:02:44.743Z,19.30
2023-01-03T14:05:33.117Z,20.88
2023-01-03T14:08:19.853Z,20.55
2023-01-03T14:11:07.140Z,20.40
2023-01-03T14:13:42.582Z,20.35
2023-01-03T14:16:26.985Z,20.75
2023-01-03T14:19:04.412Z,20.55
2023-01-03T14:21:42.570Z,21.40
2023-01-03T14:24:23.893Z,21.95
2023-01-03T14:26:52.578Z,20.95
2023-01-03T14:29:24.049Z,19.38
2023-01-03T14:32:00.560Z,20.00
2023-01-03T14:34:35.512Z,21.08
2023-01-03T14:37:07.882Z,22.80
2023-01-03T14:42:05.155Z,22.67
2023-01-03T14:44:34.195Z,22.63
2023-01-03T14:47:05.141Z,23.38
2023-01-03T14:49:41.822Z,22.40
2023-01-03T14:52:18.970Z,25.65
2023-01-03T14:54:50.637Z,24.88
2023-01-03T14:57:21.418Z,23.77
2023-01-03T14:59:51.643Z,23.50
2023-01-03T15:02:21.184Z,23.15
2023-01-03T15:04:54.402Z,24.27
2023-01-03T15:07:32.205Z,24.88
2023-01-03T15:10:17.074Z,26.67
2023-01-03T15:12:49.645Z,25.50
2023-01-03T15:15:24.224Z,24.95
2023-01-03T15:17:55.281Z,23.15
2023-01-03T15:20:30.098Z,24.20
2023-01-03T15:22:59.902Z,24.08
2023-01-03T15:25:33.956Z,25.20
2023-01-03T15:28:24.690Z,26.23
2023-01-03T15:30:54.268Z,26.50
2023-01-03T15:33:32.487Z,29.50
2023-01-03T15:36:05.008Z,28.45
2023-01-03T15:38:37.627Z,31.08
2023-01-03T15:41:16.681Z,33.63
2023-01-03T15:43:44.462Z,33.22
2023-01-03T15:46:15.413Z,32.80
2023-01-03T15:48:47.367Z,30.50
2023-01-03T15:51:15.709Z,29.15
2023-01-03T15:53:45.471Z,27.08
2023-01-03T15:56:19.242Z,26.55
2023-01-03T15:58:48.849Z,26.52
2023-01-03T16:01:17.909Z,27.35
2023-01-03T16:03:46.969Z,27.92
2023-01-03T16:06:16.534Z,27.23
2023-01-03T16:08:46.552Z,28.60
2023-01-03T16:11:20.493Z,30.23
2023-01-03T16:13:53.604Z,31.05
2023-01-03T16:16:26.852Z,32.03
2023-01-03T16:18:55.713Z,31.40
2023-01-03T16:21:24.836Z,34.20
2023-01-03T16:23:54.461Z,36.92
2023-01-03T16:26:22.753Z,34.80
2023-01-03T16:28:50.911Z,44.67
2023-01-03T16:31:20.749Z,49.70
2023-01-03T16:33:50.727Z,67.72
2023-01-03T16:36:27.084Z,63.90
2023-01-03T16:38:56.641Z,61.55
2023-01-03T16:41:26.972Z,78.70
2023-01-03T16:43:57.149Z,71.90
2023-01-03T16:46:27.244Z,68.38
2023-01-03T16:48:58.027Z,74.35
2023-01-03T16:51:28.793Z,80.78
2023-01-03T16:54:00.419Z,78.55
2023-01-03T16:56:28.958Z,86.05
2023-01-03T16:58:57.163Z,84.88
2023-01-03T17:01:26.656Z,91.47
2023-01-03T17:03:55.405Z,83.53
2023-01-03T17:06:35.000Z,85.03
2023-01-03T17:09:13.057Z,77.45
2023-01-03T17:11:41.568Z,63.97
2023-01-03T17:14:17.784Z,53.88
2023-01-03T17:16:46.406Z,49.53
2023-01-03T17:20:01.177Z,49.78
2023-01-03T17:22:08.217Z,48.97
2023-01-03T17:24:37.968Z,56.05
2023-01-03T17:27:11.011Z,61.63
2023-01-03T17:29:40.364Z,66.65
2023-01-03T17:32:17.665Z,76.38
2023-01-03T17:34:46.215Z,75.10
2023-01-03T17:37:17.980Z,73.70
2023-01-03T17:39:51.032Z,63.30
2023-01-03T17:42:19.394Z,53.45
2023-01-03T17:45:03.494Z,47.05
2023-01-03T17:47:49.441Z,45.85
2023-01-03T17:50:18.127Z,45.08
2023-01-03T17:52:51.877Z,45.42
2023-01-03T17:55:27.351Z,45.85
2023-01-03T17:57:56.873Z,46.10
2023-01-03T18:00:28.899Z,51.55
2023-01-03T18:03:00.382Z,58.78
2023-01-03T18:05:31.865Z,59.63
2023-01-03T18:08:02.300Z,57.97
2023-01-03T18:10:41.842Z,58.63
2023-01-03T18:13:22.977Z,59.85
2023-01-03T18:15:52.030Z,67.15
2023-01-03T18:18:22.235Z,76.60
2023-01-03T18:20:51.268Z,81.22
2023-01-03T18:23:24.403Z,99.35
2023-01-03T18:25:54.655Z,96.72
2023-01-03T18:28:26.726Z,92.47
2023-01-03T18:30:55.901Z,89.97
2023-01-03T18:33:25.065Z,94.07
2023-01-03T18:35:54.372Z,116.97
2023-01-03T18:38:26.774Z,110.25
2023-01-03T18:41:04.511Z,109.18
2023-01-03T18:43:34.598Z,116.85
2023-01-03T18:46:04.995Z,113.97
2023-01-03T18:48:34.694Z,114.40
2023-01-03T18:51:03.332Z,97.03
2023-01-03T18:53:34.928Z,94.88
2023-01-03T18:56:05.080Z,96.90
2023-01-03T18:58:37.094Z,87.05
2023-01-03T19:01:05.903Z,90.47
2023-01-03T19:03:36.356Z,87.88
2023-01-03T19:06:17.211Z,92.07
2023-01-03T19:08:46.014Z,101.90
2023-01-03T19:11:18.769Z,95.47
2023-01-03T19:13:54.767Z,87.55
2023-01-03T19:16:25.752Z,86.72
2023-01-03T19:18:55.321Z,83.60
2023-01-03T19:21:27.739Z,82.18
2023-01-03T19:24:01.372Z,76.00
2023-01-03T19:26:34.952Z,74.35
2023-01-03T19:29:07.356Z,69.65
2023-01-03T19:31:42.576Z,73.50
2023-01-03T19:34:20.154Z,68.57
2023-01-03T19:36:49.400Z,64.85
2023-01-03T19:39:24.801Z,65.30
2023-01-03T19:42:14.728Z,57.80
2023-01-03T19:44:44.764Z,60.30
2023-01-03T19:47:15.230Z,56.22
2023-01-03T19:49:47.388Z,58.05
2023-01-03T19:52:17.815Z,59.15
2023-01-03T19:54:48.485Z,59.55
2023-01-03T19:57:25.723Z,59.75
2023-01-03T19:59:58.288Z,61.08
2023-01-03T20:02:39.598Z,57.88
2023-01-03T20:05:19.138Z,55.33
2023-01-03T20:07:49.401Z,57.22
2023-01-03T20:10:21.308Z,58.67
2023-01-03T20:12:55.216Z,57.10
2023-01-03T20:15:27.067Z,54.53
2023-01-03T20:17:56.310Z,53.90
2023-01-03T20:20:26.947Z,56.15
2023-01-03T20:23:06.397Z,51.30
2023-01-03T20:25:40.021Z,54.58
2023-01-03T20:28:18.538Z,52.97
2023-01-03T20:30:50.604Z,52.90
2023-01-03T20:33:20.812Z,54.00
2023-01-03T20:38:40.667Z,47.95
2023-01-03T20:41:13.158Z,48.75
2023-01-03T20:43:44.248Z,35.78
2023-01-03T20:46:18.572Z,36.25
2023-01-03T20:48:55.367Z,41.80
2023-01-03T20:51:25.843Z,36.78
2023-01-03T20:53:55.575Z,44.78
2023-01-03T20:56:24.572Z,39.35
2023-01-03T20:58:54.911Z,36.63
2023-01-03T21:01:23.891Z,31.83
2023-01-03T21:03:52.695Z,33.83
2023-01-03T21:06:23.013Z,36.17
2023-01-03T21:08:54.679Z,33.75
2023-01-03T21:11:27.051Z,38.15
2023-01-03T21:13:58.195Z,38.30
2023-01-03T21:16:34.935Z,39.03
2023-01-03T21:19:06.724Z,37.53
2023-01-03T21:21:36.035Z,37.45
2023-01-03T21:24:10.437Z,37.42
2023-01-03T21:26:40.631Z,38.70
2023-01-03T21:29:11.749Z,37.47
2023-01-03T21:31:42.379Z,39.30
2023-01-03T21:34:19.259Z,43.00
2023-01-03T21:36:48.307Z,45.85
2023-01-03T21:39:17.727Z,44.92
2023-01-03T21:42:03.603Z,51.30
2023-01-03T21:44:33.494Z,55.20
2023-01-03T21:47:01.708Z,54.42
2023-01-03T21:49:30.767Z,53.13
2023-01-03T21:51:59.054Z,51.47
2023-01-03T21:54:27.523Z,49.78
2023-01-03T21:56:55.929Z,51.47
2023-01-03T21:59:24.201Z,52.45
2023-01-03T22:02:11.236Z,50.78
2023-01-03T22:04:39.625Z,46.53
2023-01-03T22:07:07.752Z,45.47
2023-01-03T22:09:53.585Z,45.50
2023-01-03T22:12:21.889Z,46.13
2023-01-03T22:14:50.166Z,36.80
2023-01-03T22:17:19.803Z,33.65
2023-01-03T22:19:47.980Z,35.58
2023-01-03T22:22:16.228Z,35.05
2023-01-03T22:24:44.480Z,32.35
2023-01-03T22:27:12.676Z,27.02
2023-01-03T22:29:40.895Z,26.90
2023-01-03T22:32:10.431Z,26.90
2023-01-03T22:34:40.689Z,14.98
2023-01-03T22:37:08.930Z,10.05
2023-01-03T22:39:37.260Z,8.07
2023-01-03T22:42:17.648Z,6.97
2023-01-03T22:44:47.752Z,7.32
2023-01-03T22:47:15.921Z,6.43
2023-01-03T22:49:45.561Z,4.85
2023-01-03T22:52:13.660Z,4.68
2023-01-03T22:54:41.928Z,6.35
2023-01-03T22:57:10.075Z,5.65
2023-01-03T22:59:38.195Z,5.57
2023-01-03T23:02:06.464Z,7.53
2023-01-03T23:04:34.778Z,7.50
2023-01-03T23:07:04.402Z,8.02
2023-01-03T23:09:32.569Z,8.40
2023-01-03T23:12:26.459Z,8.50
2023-01-03T23:14:54.622Z,8.45
2023-01-03T23:17:40.221Z,8.00
2023-01-03T23:20:09.347Z,6.83
2023-01-03T23:22:39.078Z,4.85
2023-01-03T23:25:08.058Z,5.38
2023-01-03T23:27:36.232Z,5.00
2023-01-03T23:30:04.700Z,5.38
2023-01-03T23:32:33.944Z,5.50
2023-01-03T23:35:02.144Z,4.82
2023-01-03T23:37:30.359Z,5.35
2023-01-03T23:39:59.940Z,5.13
2023-01-03T23:42:29.924Z,5.38
2023-01-03T23:44:58.057Z,5.00
2023-01-03T23:47:26.222Z,5.15
2023-01-03T23:49:54.384Z,4.63
2023-01-03T23:52:22.610Z,5.18
2023-01-03T23:54:56.176Z,4.03
2023-01-03T23:57:29.601Z,5.50
2023-01-03T23:59:57.873Z,5.88
